createdAt,value
2018-12-26T00:02:11.263Z,3.30
2018-12-26T00:04:51.927Z,3.30
2018-12-26T00:07:32.882Z,3.30
2018-12-26T00:10:14.072Z,3.30
2018-12-26T00:12:54.432Z,3.20
2018-12-26T00:15:35.210Z,3.20
2018-12-26T00:18:18.958Z,3.20
2018-12-26T00:20:59.522Z,3.20
2018-12-26T00:23:40.104Z,3.20
2018-12-26T00:26:20.770Z,3.10
2018-12-26T00:29:01.470Z,3.10
2018-12-26T00:31:41.807Z,3.20
2018-12-26T00:34:22.252Z,3.10
2018-12-26T00:37:20.731Z,3.10
2018-12-26T00:39:51.285Z,3.20
2018-12-26T00:42:31.752Z,3.10
2018-12-26T00:45:12.705Z,3.10
2018-12-26T00:47:56.192Z,3.00
2018-12-26T00:50:37.113Z,3.00
2018-12-26T00:53:19.731Z,3.00
2018-12-26T00:56:10.440Z,3.00
2018-12-26T00:58:45.809Z,3.00
2018-12-26T01:01:29.599Z,3.00
2018-12-26T01:04:10.522Z,3.00
2018-12-26T01:06:51.393Z,3.00
2018-12-26T01:09:34.512Z,3.00
2018-12-26T01:12:15.637Z,2.90
2018-12-26T01:14:56.570Z,3.00
2018-12-26T01:17:37.713Z,3.00
2018-12-26T01:20:18.874Z,3.00
2018-12-26T01:22:59.837Z,3.00
2018-12-26T01:25:41.615Z,3.00
2018-12-26T01:28:22.785Z,2.90
2018-12-26T01:31:05.150Z,2.90
2018-12-26T01:33:46.005Z,2.90
2018-12-26T01:36:27.122Z,2.90
2018-12-26T01:39:08.028Z,2.90
2018-12-26T01:41:48.808Z,2.90
2018-12-26T01:44:29.460Z,2.90
2018-12-26T01:47:10.214Z,2.90
2018-12-26T01:49:50.925Z,2.90
2018-12-26T01:52:32.016Z,2.90
2018-12-26T01:55:12.846Z,2.90
2018-12-26T01:57:53.629Z,2.90
2018-12-26T02:00:37.227Z,2.90
2018-12-26T02:03:18.416Z,2.90
2018-12-26T02:05:59.170Z,2.90
2018-12-26T02:08:39.927Z,2.90
2018-12-26T02:11:20.660Z,2.90
2018-12-26T02:14:01.474Z,2.90
2018-12-26T02:16:42.394Z,2.90
2018-12-26T02:19:23.843Z,2.90
2018-12-26T02:22:05.047Z,2.90
2018-12-26T02:24:46.622Z,2.90
2018-12-26T02:27:27.459Z,2.90
2018-12-26T02:30:08.276Z,2.90
2018-12-26T02:32:49.150Z,2.80
2018-12-26T02:35:33.611Z,2.80
2018-12-26T02:38:17.407Z,2.90
2018-12-26T02:40:56.757Z,2.80
2018-12-26T02:43:37.803Z,2.80
2018-12-26T02:46:18.934Z,2.70
2018-12-26T02:48:59.985Z,2.80
2018-12-26T02:51:40.737Z,2.70
2018-12-26T02:54:21.610Z,2.70
2018-12-26T02:57:19.705Z,2.70
2018-12-26T03:00:05.885Z,2.70
2018-12-26T03:02:51.717Z,2.70
2018-12-26T03:05:33.076Z,2.70
2018-12-26T03:08:13.745Z,2.70
2018-12-26T03:10:57.589Z,2.60
2018-12-26T03:13:38.354Z,2.60
2018-12-26T03:16:19.403Z,2.60
2018-12-26T03:19:00.226Z,2.60
2018-12-26T03:21:41.074Z,2.50
2018-12-26T03:24:21.709Z,2.50
2018-12-26T03:27:02.490Z,2.50
2018-12-26T03:29:43.065Z,2.50
2018-12-26T03:32:23.831Z,2.50
2018-12-26T03:35:04.597Z,2.40
2018-12-26T03:37:48.414Z,2.40
2018-12-26T03:40:31.204Z,2.40
2018-12-26T03:43:12.162Z,2.40
2018-12-26T03:45:52.653Z,2.40
2018-12-26T03:48:33.490Z,2.30
2018-12-26T03:51:14.140Z,2.30
2018-12-26T03:53:55.027Z,2.20
2018-12-26T03:56:35.554Z,2.20
2018-12-26T03:59:16.188Z,2.20
2018-12-26T04:01:56.814Z,2.20
2018-12-26T04:04:37.718Z,2.30
2018-12-26T04:07:18.375Z,2.30
2018-12-26T04:09:59.393Z,2.20
2018-12-26T04:12:40.009Z,2.20
2018-12-26T04:15:20.871Z,2.20
2018-12-26T04:18:01.684Z,2.10
2018-12-26T04:20:42.295Z,2.00
2018-12-26T04:23:22.960Z,2.10
2018-12-26T04:26:04.019Z,2.10
2018-12-26T04:28:44.732Z,2.00
2018-12-26T04:31:25.793Z,2.00
2018-12-26T04:34:06.271Z,2.00
2018-12-26T04:36:47.072Z,2.00
2018-12-26T04:39:27.798Z,2.00
2018-12-26T04:42:08.536Z,1.90
2018-12-26T04:44:49.140Z,1.80
2018-12-26T04:47:29.884Z,1.80
2018-12-26T04:50:13.347Z,1.80
2018-12-26T04:52:54.584Z,1.80
2018-12-26T04:55:35.860Z,1.80
2018-12-26T04:58:16.585Z,1.80
2018-12-26T05:00:57.805Z,1.80
2018-12-26T05:03:38.527Z,1.80
2018-12-26T05:06:19.647Z,1.80
2018-12-26T05:09:00.325Z,1.80
2018-12-26T05:11:41.057Z,1.80
2018-12-26T05:14:21.858Z,1.80
2018-12-26T05:17:02.811Z,1.80
2018-12-26T05:19:46.653Z,1.80
2018-12-26T05:22:27.287Z,1.80
2018-12-26T05:25:07.951Z,1.80
2018-12-26T05:27:48.815Z,1.80
2018-12-26T05:30:29.629Z,1.80
2018-12-26T05:33:10.337Z,1.80
2018-12-26T05:35:51.326Z,1.80
2018-12-26T05:38:32.565Z,1.80
2018-12-26T05:41:14.738Z,1.80
2018-12-26T05:43:55.097Z,1.80
2018-12-26T05:46:35.761Z,1.80
2018-12-26T05:49:16.378Z,1.80
2018-12-26T05:51:57.250Z,1.70
2018-12-26T05:54:37.785Z,1.70
2018-12-26T05:57:18.735Z,1.80
2018-12-26T05:59:59.468Z,1.70
2018-12-26T06:02:39.949Z,1.70
2018-12-26T06:05:20.652Z,1.70
2018-12-26T06:08:01.622Z,1.70
2018-12-26T06:10:46.028Z,1.70
2018-12-26T06:13:26.437Z,1.70
2018-12-26T06:16:07.212Z,1.80
2018-12-26T06:18:47.914Z,1.70
2018-12-26T06:21:28.551Z,1.70
2018-12-26T06:24:09.477Z,1.70
2018-12-26T06:26:50.211Z,1.70
2018-12-26T06:29:31.077Z,1.70
2018-12-26T06:32:11.629Z,1.70
2018-12-26T06:34:52.202Z,1.70
2018-12-26T06:37:38.993Z,1.80
2018-12-26T06:40:21.813Z,1.70
2018-12-26T06:43:02.792Z,1.80
2018-12-26T06:45:43.097Z,1.80
2018-12-26T06:48:23.845Z,1.80
2018-12-26T06:51:04.523Z,1.80
2018-12-26T06:53:44.877Z,1.80
2018-12-26T06:56:25.520Z,1.80
2018-12-26T06:59:06.292Z,1.80
2018-12-26T07:01:46.934Z,1.80
2018-12-26T07:04:27.616Z,1.80
2018-12-26T07:07:08.723Z,1.70
2018-12-26T07:09:50.543Z,1.80
2018-12-26T07:12:31.204Z,1.70
2018-12-26T07:15:12.089Z,1.80
2018-12-26T07:17:53.216Z,1.80
2018-12-26T07:20:33.709Z,1.80
2018-12-26T07:23:14.302Z,1.80
2018-12-26T07:25:54.991Z,1.80
2018-12-26T07:28:35.408Z,1.80
2018-12-26T07:31:16.139Z,1.80
2018-12-26T07:33:57.467Z,1.80
2018-12-26T07:36:38.043Z,1.80
2018-12-26T07:39:18.574Z,1.80
2018-12-26T07:41:59.341Z,1.80
2018-12-26T07:44:40.246Z,1.80
2018-12-26T07:47:21.014Z,1.80
2018-12-26T07:50:02.045Z,1.80
2018-12-26T07:52:42.536Z,1.80
2018-12-26T07:55:23.250Z,1.80
2018-12-26T07:58:04.007Z,1.80
2018-12-26T08:00:44.794Z,1.80
2018-12-26T08:03:25.612Z,1.80
2018-12-26T08:06:06.449Z,1.90
2018-12-26T08:08:47.219Z,1.90
2018-12-26T08:11:28.047Z,1.90
2018-12-26T08:14:08.708Z,1.90
2018-12-26T08:16:49.831Z,1.90
2018-12-26T08:19:30.194Z,1.90
2018-12-26T08:22:10.846Z,1.90
2018-12-26T08:24:51.787Z,2.00
2018-12-26T08:27:32.430Z,2.00
2018-12-26T08:30:13.046Z,2.00
2018-12-26T08:32:53.962Z,2.00
2018-12-26T08:35:34.996Z,2.00
2018-12-26T08:38:15.771Z,2.10
2018-12-26T08:40:58.389Z,2.10
2018-12-26T08:43:39.014Z,2.10
2018-12-26T08:46:19.684Z,2.00
2018-12-26T08:49:00.593Z,2.00
2018-12-26T08:51:41.177Z,2.00
2018-12-26T08:54:21.687Z,2.10
2018-12-26T08:57:02.560Z,2.10
2018-12-26T08:59:43.524Z,2.10
2018-12-26T09:02:24.362Z,2.10
2018-12-26T09:05:05.049Z,2.10
2018-12-26T09:07:48.577Z,2.10
2018-12-26T09:10:29.609Z,2.10
2018-12-26T09:13:10.261Z,2.10
2018-12-26T09:15:54.654Z,2.00
2018-12-26T09:18:35.690Z,2.10
2018-12-26T09:21:19.487Z,2.10
2018-12-26T09:24:00.669Z,2.00
2018-12-26T09:26:41.786Z,2.00
2018-12-26T09:29:22.174Z,2.00
2018-12-26T09:34:49.217Z,2.00
2018-12-26T09:37:30.932Z,2.00
2018-12-26T09:40:12.159Z,1.90
2018-12-26T09:42:59.431Z,1.90
2018-12-26T09:45:43.887Z,1.90
2018-12-26T09:48:27.795Z,1.90
2018-12-26T09:51:11.039Z,1.90
2018-12-26T09:53:52.279Z,1.90
2018-12-26T09:56:33.129Z,1.80
2018-12-26T09:59:14.805Z,1.70
2018-12-26T10:01:55.313Z,1.80
2018-12-26T10:04:35.748Z,1.80
2018-12-26T10:07:17.640Z,1.80
2018-12-26T10:09:59.825Z,1.80
2018-12-26T10:12:43.866Z,1.80
2018-12-26T10:15:25.149Z,1.90
2018-12-26T10:18:05.983Z,1.80
2018-12-26T10:20:46.646Z,1.90
2018-12-26T10:23:30.333Z,1.90
2018-12-26T10:26:11.482Z,2.00
2018-12-26T10:28:52.155Z,2.00
2018-12-26T10:31:33.974Z,1.90
2018-12-26T10:34:14.819Z,1.90
2018-12-26T10:37:13.597Z,1.90
2018-12-26T10:39:50.663Z,1.80
2018-12-26T10:42:37.235Z,1.90
2018-12-26T10:45:17.842Z,1.80
2018-12-26T10:47:58.438Z,1.80
2018-12-26T10:50:39.427Z,1.90
2018-12-26T10:53:20.198Z,1.90
2018-12-26T10:56:01.245Z,1.90
2018-12-26T10:58:43.290Z,1.90
2018-12-26T11:01:24.286Z,1.90
2018-12-26T11:04:04.943Z,1.90
2018-12-26T11:06:48.609Z,1.90
2018-12-26T11:09:29.703Z,2.00
2018-12-26T11:12:10.661Z,2.00
2018-12-26T11:14:51.359Z,2.00
2018-12-26T11:17:32.481Z,2.00
2018-12-26T11:20:13.354Z,2.10
2018-12-26T11:22:54.649Z,2.10
2018-12-26T11:25:35.429Z,2.00
2018-12-26T11:28:18.979Z,2.00
2018-12-26T11:31:05.477Z,2.00
2018-12-26T11:39:32.299Z,1.90
2018-12-26T11:42:13.211Z,1.90
2018-12-26T11:45:00.296Z,1.90
2018-12-26T11:47:41.155Z,1.80
2018-12-26T11:50:21.822Z,1.80
2018-12-26T11:53:05.492Z,1.90
2018-12-26T11:55:46.270Z,1.80
2018-12-26T11:58:27.244Z,1.80
2018-12-26T12:01:09.446Z,1.80
2018-12-26T12:06:33.769Z,1.80
2018-12-26T12:09:16.461Z,1.80
2018-12-26T12:11:57.325Z,1.80
2018-12-26T12:14:38.866Z,1.90
2018-12-26T12:17:21.061Z,1.90
2018-12-26T12:20:01.875Z,1.90
2018-12-26T12:22:44.019Z,1.80
2018-12-26T12:25:26.830Z,1.80
2018-12-26T12:28:07.197Z,1.80
2018-12-26T12:30:49.859Z,1.80
2018-12-26T12:33:31.079Z,1.70
2018-12-26T12:36:13.074Z,1.80
2018-12-26T12:38:55.519Z,1.90
2018-12-26T12:41:36.043Z,1.90
2018-12-26T12:44:16.757Z,1.90
2018-12-26T12:46:58.191Z,1.80
2018-12-26T12:49:42.613Z,1.80
2018-12-26T12:52:24.886Z,1.80
2018-12-26T12:55:07.016Z,1.80
2018-12-26T12:57:48.484Z,1.80
2018-12-26T13:00:29.091Z,1.80
2018-12-26T13:03:09.804Z,1.80
2018-12-26T13:05:50.334Z,1.90
2018-12-26T13:08:31.009Z,1.80
2018-12-26T13:11:12.162Z,1.90
2018-12-26T13:13:52.807Z,1.90
2018-12-26T13:16:33.665Z,1.90
2018-12-26T13:19:15.155Z,1.90
2018-12-26T13:21:56.166Z,2.00
2018-12-26T13:24:39.385Z,2.00
2018-12-26T13:27:19.918Z,2.00
2018-12-26T13:30:06.763Z,1.90
2018-12-26T13:32:47.966Z,1.90
2018-12-26T13:35:28.765Z,1.90
2018-12-26T13:38:09.398Z,1.90
2018-12-26T13:40:51.153Z,1.90
2018-12-26T13:43:33.249Z,1.90
2018-12-26T13:48:56.294Z,2.00
2018-12-26T13:51:37.230Z,2.00
2018-12-26T13:54:18.077Z,2.10
2018-12-26T13:57:02.623Z,2.10
2018-12-26T13:59:45.192Z,2.10
2018-12-26T14:02:29.293Z,2.10
2018-12-26T14:05:10.374Z,2.10
2018-12-26T14:07:51.200Z,2.10
2018-12-26T14:13:30.950Z,2.20
2018-12-26T14:16:11.543Z,2.20
2018-12-26T14:18:52.279Z,2.20
2018-12-26T14:21:33.171Z,2.20
2018-12-26T14:24:13.701Z,2.30
2018-12-26T14:26:54.355Z,2.30
2018-12-26T14:29:37.787Z,2.20
2018-12-26T14:32:23.650Z,2.20
2018-12-26T14:35:04.668Z,2.30
2018-12-26T14:37:45.159Z,2.30
2018-12-26T14:40:26.046Z,2.20
2018-12-26T14:43:08.210Z,2.20
2018-12-26T14:45:49.061Z,2.30
2018-12-26T14:48:29.856Z,2.30
2018-12-26T14:51:10.857Z,2.40
2018-12-26T14:53:51.634Z,2.30
2018-12-26T14:56:32.722Z,2.30
2018-12-26T14:59:14.929Z,2.30
2018-12-26T15:01:55.649Z,2.30
2018-12-26T15:04:36.287Z,2.30
2018-12-26T15:07:17.261Z,2.30
2018-12-26T15:09:58.109Z,2.20
2018-12-26T15:12:39.140Z,2.30
2018-12-26T15:15:22.535Z,2.30
2018-12-26T15:18:05.460Z,2.20
2018-12-26T15:20:46.249Z,2.20
2018-12-26T15:23:31.043Z,2.20
2018-12-26T15:26:09.614Z,2.20
2018-12-26T15:28:50.653Z,2.10
2018-12-26T15:31:32.068Z,2.10
2018-12-26T15:34:12.658Z,2.10
2018-12-26T15:36:53.031Z,2.10
2018-12-26T15:39:33.834Z,2.10
2018-12-26T15:42:14.630Z,2.10
2018-12-26T15:44:55.228Z,2.10
2018-12-26T15:47:35.998Z,2.10
2018-12-26T15:50:17.404Z,2.00
2018-12-26T15:52:58.646Z,2.00
2018-12-26T15:55:39.422Z,2.00
2018-12-26T15:58:20.249Z,2.00
2018-12-26T16:01:01.241Z,2.00
2018-12-26T16:03:42.839Z,2.00
2018-12-26T16:06:23.512Z,1.90
2018-12-26T16:09:04.180Z,1.90
2018-12-26T16:11:45.124Z,1.80
2018-12-26T16:14:26.393Z,1.80
2018-12-26T16:17:07.539Z,1.80
2018-12-26T16:19:48.159Z,1.80
2018-12-26T16:22:32.415Z,1.70
2018-12-26T16:25:13.534Z,1.60
2018-12-26T16:27:54.166Z,1.60
2018-12-26T16:30:45.984Z,1.60
2018-12-26T16:36:12.915Z,1.70
2018-12-26T16:38:53.075Z,1.60
2018-12-26T16:41:33.693Z,1.60
2018-12-26T16:44:14.778Z,1.60
2018-12-26T16:46:55.737Z,1.50
2018-12-26T16:49:36.362Z,1.60
2018-12-26T16:52:17.834Z,1.60
2018-12-26T16:54:59.022Z,1.50
2018-12-26T16:57:39.776Z,1.50
2018-12-26T17:00:23.525Z,1.50
2018-12-26T17:03:04.870Z,1.50
2018-12-26T17:05:45.954Z,1.60
2018-12-26T17:08:29.356Z,1.50
2018-12-26T17:11:09.658Z,1.50
2018-12-26T17:13:50.592Z,1.50
2018-12-26T17:16:31.635Z,1.50
2018-12-26T17:19:12.318Z,1.50
2018-12-26T17:21:58.845Z,1.50
2018-12-26T17:24:40.086Z,1.50
2018-12-26T17:27:21.157Z,1.50
2018-12-26T17:30:01.857Z,1.50
2018-12-26T17:32:44.550Z,1.50
2018-12-26T17:35:25.171Z,1.50
2018-12-26T17:38:06.304Z,1.40
2018-12-26T17:40:48.677Z,1.40
2018-12-26T17:43:30.100Z,1.40
2018-12-26T17:46:10.481Z,1.40
2018-12-26T17:48:52.179Z,1.40
2018-12-26T17:51:32.897Z,1.40
2018-12-26T17:54:13.909Z,1.40
2018-12-26T17:56:55.152Z,1.40
2018-12-26T17:59:38.184Z,1.40
2018-12-26T18:02:18.954Z,1.40
2018-12-26T18:05:02.619Z,1.40
2018-12-26T18:07:46.372Z,1.40
2018-12-26T18:10:27.303Z,1.50
2018-12-26T18:13:08.401Z,1.40
2018-12-26T18:15:48.775Z,1.40
2018-12-26T18:18:29.899Z,1.40
2018-12-26T18:21:10.803Z,1.40
2018-12-26T18:23:51.503Z,1.40
2018-12-26T18:26:32.935Z,1.30
2018-12-26T18:29:15.996Z,1.40
2018-12-26T18:31:56.844Z,1.40
2018-12-26T18:34:37.857Z,1.40
2018-12-26T18:37:18.561Z,1.40
2018-12-26T18:39:59.297Z,1.40
2018-12-26T18:42:44.296Z,1.50
2018-12-26T18:45:26.177Z,1.50
2018-12-26T18:48:06.447Z,1.50
2018-12-26T18:50:47.345Z,1.50
2018-12-26T18:53:30.634Z,1.50
2018-12-26T18:56:30.822Z,1.50
2018-12-26T18:59:13.207Z,1.60
2018-12-26T19:01:56.154Z,1.60
2018-12-26T19:04:37.202Z,1.60
2018-12-26T19:07:21.066Z,1.60
2018-12-26T19:10:01.471Z,1.50
2018-12-26T19:12:42.321Z,1.50
2018-12-26T19:15:23.205Z,1.50
2018-12-26T19:18:04.128Z,1.60
2018-12-26T19:20:47.592Z,1.60
2018-12-26T19:23:28.292Z,1.60
2018-12-26T19:26:11.923Z,1.50
2018-12-26T19:28:52.612Z,1.50
2018-12-26T19:31:39.509Z,1.50
2018-12-26T19:34:16.271Z,1.50
2018-12-26T19:36:57.481Z,1.50
2018-12-26T19:39:38.147Z,1.50
2018-12-26T19:42:18.902Z,1.50
2018-12-26T19:45:00.159Z,1.50
2018-12-26T19:50:22.990Z,1.50
2018-12-26T19:53:03.949Z,1.60
2018-12-26T19:55:45.301Z,1.50
2018-12-26T19:58:26.261Z,1.60
2018-12-26T20:01:06.766Z,1.60
2018-12-26T20:03:48.949Z,1.50
2018-12-26T20:06:29.874Z,1.60
2018-12-26T20:09:11.173Z,1.60
2018-12-26T20:11:52.159Z,1.60
2018-12-26T20:14:34.706Z,1.60
2018-12-26T20:17:15.818Z,1.60
2018-12-26T20:19:56.899Z,1.60
2018-12-26T20:22:37.846Z,1.60
2018-12-26T20:25:18.712Z,1.60
2018-12-26T20:27:59.324Z,1.60
2018-12-26T20:30:42.698Z,1.70
2018-12-26T20:33:25.115Z,1.70
2018-12-26T20:36:05.925Z,1.60
2018-12-26T20:38:46.767Z,1.60
2018-12-26T20:41:27.787Z,1.70
2018-12-26T20:44:08.514Z,1.70
2018-12-26T20:46:52.813Z,1.70
2018-12-26T20:49:33.701Z,1.70
2018-12-26T20:52:17.328Z,1.70
2018-12-26T20:54:58.532Z,1.80
2018-12-26T20:57:39.246Z,1.80
2018-12-26T21:00:20.158Z,1.80
2018-12-26T21:03:01.255Z,1.80
2018-12-26T21:05:44.847Z,1.80
2018-12-26T21:08:27.222Z,1.80
2018-12-26T21:11:10.838Z,1.80
2018-12-26T21:13:52.267Z,1.80
2018-12-26T21:16:33.034Z,1.80
2018-12-26T21:19:14.729Z,1.80
2018-12-26T21:21:55.549Z,1.90
2018-12-26T21:24:36.223Z,1.90
2018-12-26T21:27:18.332Z,2.00
2018-12-26T21:29:59.616Z,2.00
2018-12-26T21:32:40.824Z,2.00
2018-12-26T21:35:24.082Z,2.00
2018-12-26T21:38:05.348Z,2.00
2018-12-26T21:40:45.836Z,2.00
2018-12-26T21:43:26.725Z,2.00
2018-12-26T21:46:07.502Z,2.00
2018-12-26T21:48:48.310Z,2.00
2018-12-26T21:51:29.343Z,2.00
2018-12-26T21:54:13.619Z,1.90
2018-12-26T21:56:57.261Z,2.00
2018-12-26T21:59:37.648Z,2.00
2018-12-26T22:02:22.419Z,2.10
2018-12-26T22:05:01.073Z,2.10
2018-12-26T22:07:46.795Z,2.20
2018-12-26T22:10:30.521Z,2.30
2018-12-26T22:13:14.473Z,2.40
2018-12-26T22:15:55.898Z,2.40
2018-12-26T22:18:39.635Z,2.30
2018-12-26T22:21:20.786Z,2.40
2018-12-26T22:26:43.928Z,2.30
2018-12-26T22:29:24.445Z,2.30
2018-12-26T22:32:05.282Z,2.40
2018-12-26T22:34:49.257Z,2.40
2018-12-26T22:37:31.075Z,2.50
2018-12-26T22:40:13.817Z,2.50
2018-12-26T22:42:57.067Z,2.60
2018-12-26T22:45:43.817Z,2.60
2018-12-26T22:48:20.629Z,2.80
2018-12-26T22:51:01.755Z,2.80
2018-12-26T22:53:43.951Z,2.70
2018-12-26T22:56:25.285Z,2.50
2018-12-26T22:59:06.104Z,2.50
2018-12-26T23:01:46.455Z,2.50
2018-12-26T23:04:28.940Z,2.40
2018-12-26T23:07:10.259Z,2.30
2018-12-26T23:09:51.640Z,2.30
2018-12-26T23:12:32.645Z,2.30
2018-12-26T23:15:13.337Z,2.30
2018-12-26T23:17:54.283Z,2.30
2018-12-26T23:20:35.573Z,2.20
2018-12-26T23:23:20.911Z,2.20
2018-12-26T23:26:03.585Z,2.10
2018-12-26T23:31:27.904Z,2.10
2018-12-26T23:34:08.780Z,2.00
2018-12-26T23:36:49.507Z,2.00
2018-12-26T23:39:32.634Z,2.00
2018-12-26T23:42:12.905Z,2.00
2018-12-26T23:44:53.910Z,2.00
2018-12-26T23:47:35.194Z,2.00
2018-12-26T23:50:16.056Z,1.90
2018-12-26T23:52:56.629Z,1.90
2018-12-26T23:55:37.173Z,1.80
2018-12-26T23:58:18.206Z,1.80
